Terminal Aerodrome Forecast
Issued by NWS Boston, MA

Home | Current Version | Previous Version | Text Only | Print | Product List | Glossary On
Versions: 1 2 3 4 5 6 7 8 9 10 11 12 13 14 15 16 17 18 19 20 21 22 23 24 25 26 27 28
577
FTUS41 KBOX 131122
TAFORH
TAF
KORH 131122Z 1312/1412 28008KT P6SM BKN060
     FM131400 30013G20KT P6SM BKN070
     FM131700 30016G25KT P6SM SCT035
     FM132300 30018G36KT P6SM SCT250
     FM141000 31013G28KT P6SM FEW250=

USA.gov is the U.S. government's official web portal to all federal, state and local government web resources and services.